createdAt,value
2022-10-23T05:02:51.312Z,12.55
2022-10-23T05:05:20.914Z,12.60
2022-10-23T05:08:07.877Z,12.67
2022-10-23T05:11:03.154Z,12.67
2022-10-23T05:13:30.046Z,12.67
2022-10-23T05:18:48.339Z,12.67
2022-10-23T05:21:25.490Z,12.70
2022-10-23T05:23:53.851Z,12.72
2022-10-23T05:26:22.325Z,12.72
2022-10-23T05:28:51.424Z,12.71
2022-10-23T05:31:20.205Z,12.73
2022-10-23T05:33:50.927Z,12.73
2022-10-23T05:36:21.907Z,12.77
2022-10-23T05:38:53.949Z,12.80
2022-10-23T05:41:21.581Z,12.78
2022-10-23T05:43:48.633Z,12.81
2022-10-23T05:46:33.515Z,12.82
2022-10-23T05:49:18.286Z,12.81
2022-10-23T05:51:52.950Z,12.87
2022-10-23T05:54:29.836Z,12.87
2022-10-23T05:57:14.002Z,12.88
2022-10-23T05:59:47.789Z,12.86
2022-10-23T06:02:40.351Z,12.96
2022-10-23T06:05:13.908Z,12.96
2022-10-23T06:07:51.888Z,13.01
2022-10-23T06:10:18.615Z,13.10
2022-10-23T06:12:46.625Z,13.16
2022-10-23T06:15:17.332Z,13.24
2022-10-23T06:17:55.356Z,13.32
2022-10-23T06:20:25.347Z,13.38
2022-10-23T06:23:02.997Z,13.47
2022-10-23T06:25:50.958Z,13.56
2022-10-23T06:28:20.620Z,13.49
2022-10-23T06:30:48.574Z,13.60
2022-10-23T06:33:15.441Z,13.69
2022-10-23T06:35:43.540Z,13.78
2022-10-23T06:38:12.033Z,13.82
2022-10-23T06:40:45.064Z,13.87
2022-10-23T06:43:17.973Z,13.80
2022-10-23T06:46:09.554Z,13.90
2022-10-23T06:48:55.088Z,14.00
2022-10-23T06:51:29.246Z,14.11
2022-10-23T06:53:57.082Z,14.25
2022-10-23T06:56:53.364Z,14.36
2022-10-23T06:59:30.545Z,14.41
2022-10-23T07:01:57.195Z,14.46
2022-10-23T07:04:24.122Z,14.54
2022-10-23T07:06:50.559Z,14.63
2022-10-23T07:09:44.293Z,14.79
2022-10-23T07:12:27.672Z,14.82
2022-10-23T07:15:10.188Z,14.92
2022-10-23T07:17:36.952Z,15.03
2022-10-23T07:20:09.094Z,15.10
2022-10-23T07:22:36.121Z,15.10
2022-10-23T07:25:12.974Z,14.99
2022-10-23T07:28:04.617Z,14.97
2022-10-23T07:30:36.992Z,15.07
2022-10-23T07:33:04.360Z,15.00
2022-10-23T07:35:33.097Z,15.08
2022-10-23T07:38:13.877Z,15.18
2022-10-23T07:40:44.735Z,15.24
2022-10-23T07:43:11.574Z,15.24
2022-10-23T07:45:38.163Z,15.15
2022-10-23T07:48:20.361Z,15.02
2022-10-23T07:51:12.428Z,14.99
2022-10-23T07:53:43.108Z,14.98
2022-10-23T07:56:24.061Z,14.91
2022-10-23T07:59:12.939Z,14.86
2022-10-23T08:01:41.889Z,14.76
2022-10-23T08:04:10.256Z,14.80
2022-10-23T08:06:42.344Z,14.75
2022-10-23T08:09:11.494Z,14.69
2022-10-23T08:11:38.895Z,14.70
2022-10-23T08:14:07.595Z,14.72
2022-10-23T08:16:37.164Z,14.78
2022-10-23T08:19:05.550Z,14.85
2022-10-23T08:21:33.031Z,14.81
2022-10-23T08:24:00.876Z,14.74
2022-10-23T08:26:31.427Z,14.76
2022-10-23T08:28:59.160Z,14.80
2022-10-23T08:31:26.566Z,14.80
2022-10-23T08:34:07.849Z,14.84
2022-10-23T08:36:35.931Z,14.92
2022-10-23T08:39:03.076Z,15.05
2022-10-23T08:41:33.183Z,15.17
2022-10-23T08:44:24.560Z,15.16
2022-10-23T08:46:58.575Z,15.11
2022-10-23T08:49:53.030Z,15.29
2022-10-23T08:52:33.135Z,15.41
2022-10-23T08:55:03.775Z,15.57
2022-10-23T08:57:40.123Z,15.76
2022-10-23T09:00:15.650Z,15.90
2022-10-23T09:02:46.023Z,15.98
2022-10-23T09:05:17.030Z,16.11
2022-10-23T09:08:01.000Z,16.32
2022-10-23T09:10:45.195Z,16.53
2022-10-23T09:13:39.733Z,16.70
2022-10-23T09:16:32.535Z,16.57
2022-10-23T09:18:59.278Z,16.58
2022-10-23T09:21:29.639Z,16.57
2022-10-23T09:23:56.151Z,16.55
2022-10-23T09:26:22.914Z,16.54
2022-10-23T09:29:01.792Z,16.43
2022-10-23T09:31:28.198Z,16.24
2022-10-23T09:33:57.763Z,16.31
2022-10-23T09:36:25.372Z,16.66
2022-10-23T09:38:54.096Z,16.89
2022-10-23T09:41:39.376Z,17.30
2022-10-23T09:44:19.791Z,17.59
2022-10-23T09:47:17.833Z,18.06
2022-10-23T09:49:51.114Z,18.52
2022-10-23T09:52:17.977Z,18.88
2022-10-23T09:55:00.835Z,18.89
2022-10-23T09:57:37.789Z,19.30
2022-10-23T10:00:13.625Z,19.62
2022-10-23T10:02:43.735Z,19.79
2022-10-23T10:05:34.270Z,20.01
2022-10-23T10:08:41.312Z,20.09
2022-10-23T10:11:23.271Z,19.31
2022-10-23T10:14:11.772Z,19.59
2022-10-23T10:16:52.591Z,19.81
2022-10-23T10:19:33.654Z,19.99
2022-10-23T10:22:30.724Z,19.86
2022-10-23T10:25:08.506Z,19.86
2022-10-23T10:27:54.008Z,19.75
2022-10-23T10:30:23.404Z,19.88
2022-10-23T10:33:03.742Z,20.03
2022-10-23T10:35:42.335Z,19.85
2022-10-23T10:38:12.106Z,19.88
2022-10-23T10:40:46.428Z,20.01
2022-10-23T10:43:28.058Z,20.18
2022-10-23T10:46:13.551Z,20.88
2022-10-23T10:48:50.798Z,21.05
2022-10-23T10:51:32.243Z,20.83
2022-10-23T10:54:11.982Z,20.61
2022-10-23T10:56:43.500Z,20.66
2022-10-23T10:59:16.741Z,20.15
2022-10-23T11:02:17.631Z,20.32
2022-10-23T11:04:51.957Z,20.41
2022-10-23T11:07:26.220Z,20.41
2022-10-23T11:09:53.615Z,20.10
2022-10-23T11:12:24.483Z,20.06
2022-10-23T11:14:51.305Z,19.90
2022-10-23T11:17:38.625Z,19.55
2022-10-23T11:20:25.747Z,19.52
2022-10-23T11:23:00.384Z,19.84
2022-10-23T11:25:43.515Z,20.33
2022-10-23T11:28:34.489Z,20.82
2022-10-23T11:31:16.706Z,20.65
2022-10-23T11:34:07.612Z,20.41
2022-10-23T11:36:52.689Z,20.64
2022-10-23T11:39:29.895Z,20.94
2022-10-23T11:42:14.070Z,21.43
2022-10-23T11:44:45.027Z,21.80
2022-10-23T11:47:40.636Z,22.07
2022-10-23T11:50:07.451Z,22.17
2022-10-23T11:52:45.453Z,21.79
2022-10-23T11:55:28.682Z,21.90
2022-10-23T11:58:22.691Z,22.12
2022-10-23T12:00:51.629Z,22.22
2022-10-23T12:03:24.005Z,22.28
2022-10-23T12:06:05.754Z,22.45
2022-10-23T12:08:39.542Z,22.54
2022-10-23T12:11:27.452Z,22.75
2022-10-23T12:13:54.654Z,22.93
2022-10-23T12:16:21.532Z,23.04
2022-10-23T12:18:51.398Z,23.53
2022-10-23T12:21:22.491Z,24.05
2022-10-23T12:24:40.255Z,24.63
2022-10-23T12:27:16.030Z,24.77
2022-10-23T12:30:15.731Z,24.87
2022-10-23T12:32:48.257Z,24.44
2022-10-23T12:35:22.844Z,24.30
2022-10-23T12:38:13.595Z,24.22
2022-10-23T12:40:44.799Z,25.17
2022-10-23T12:43:30.866Z,25.60
2022-10-23T12:46:26.451Z,25.68
2022-10-23T12:48:56.035Z,26.18
2022-10-23T12:51:32.393Z,26.37
2022-10-23T12:54:00.312Z,25.15
2022-10-23T12:56:35.171Z,24.90
2022-10-23T12:59:03.525Z,24.94
2022-10-23T13:01:33.197Z,24.51
2022-10-23T13:04:29.621Z,24.10
2022-10-23T13:06:58.740Z,24.13
2022-10-23T13:09:41.499Z,23.92
2022-10-23T13:12:32.282Z,23.25
2022-10-23T13:15:02.829Z,22.98
2022-10-23T13:17:40.017Z,22.33
2022-10-23T13:20:10.743Z,21.99
2022-10-23T13:22:40.030Z,21.66
2022-10-23T13:25:31.206Z,21.21
2022-10-23T13:28:11.103Z,20.99
2022-10-23T13:30:45.523Z,20.23
2022-10-23T13:33:20.720Z,19.99
2022-10-23T13:36:27.908Z,19.71
2022-10-23T13:39:08.762Z,19.45
2022-10-23T13:41:47.197Z,19.37
2022-10-23T13:44:21.364Z,19.27
2022-10-23T13:46:48.022Z,19.30
2022-10-23T13:49:15.718Z,19.33
2022-10-23T13:51:50.743Z,19.30
2022-10-23T13:54:23.208Z,19.21
2022-10-23T13:56:50.231Z,18.95
2022-10-23T13:59:18.009Z,18.72
2022-10-23T14:01:47.378Z,18.57
2022-10-23T14:04:15.674Z,18.50
2022-10-23T14:06:43.284Z,18.47
2022-10-23T14:09:17.849Z,18.41
2022-10-23T14:11:45.420Z,18.33
2022-10-23T14:14:12.294Z,18.27
2022-10-23T14:16:38.791Z,18.12
2022-10-23T14:19:05.567Z,18.07
2022-10-23T14:21:32.011Z,17.99
2022-10-23T14:23:58.765Z,17.92
2022-10-23T14:26:29.449Z,17.90
2022-10-23T14:28:59.348Z,17.88
2022-10-23T14:31:29.194Z,17.84
2022-10-23T14:33:58.325Z,17.79
2022-10-23T14:36:38.324Z,17.73
2022-10-23T14:39:14.279Z,17.67
2022-10-23T14:41:40.791Z,17.64
2022-10-23T14:44:07.481Z,17.57
2022-10-23T14:46:35.092Z,17.45
2022-10-23T14:49:02.616Z,17.40
2022-10-23T14:51:30.367Z,17.35
2022-10-23T14:54:02.655Z,17.25
2022-10-23T14:56:31.365Z,17.15
2022-10-23T14:59:02.285Z,17.12
2022-10-23T15:01:40.119Z,17.06
2022-10-23T15:04:09.573Z,17.00
2022-10-23T15:06:37.016Z,16.91
2022-10-23T15:09:14.616Z,16.84
2022-10-23T15:11:43.634Z,16.29
2022-10-23T15:14:10.532Z,16.27
2022-10-23T15:16:40.832Z,16.11
2022-10-23T15:19:15.463Z,15.88
2022-10-23T15:21:46.327Z,15.79
2022-10-23T15:24:13.458Z,15.72
2022-10-23T15:26:42.449Z,15.57
2022-10-23T15:29:10.616Z,15.43
2022-10-23T15:31:36.981Z,15.32
2022-10-23T15:34:09.554Z,15.24
2022-10-23T15:36:36.336Z,15.09
2022-10-23T15:39:07.075Z,14.97
2022-10-23T15:41:36.086Z,14.95
2022-10-23T15:44:04.669Z,14.95
2022-10-23T15:46:31.549Z,14.93
2022-10-23T15:48:58.355Z,14.84
2022-10-23T15:51:26.063Z,14.81
2022-10-23T15:55:09.470Z,14.81
2022-10-23T15:57:35.967Z,14.64
2022-10-23T16:00:04.460Z,14.58
2022-10-23T16:02:43.807Z,14.53
2022-10-23T16:05:13.480Z,14.49
2022-10-23T16:07:39.913Z,14.45
2022-10-23T16:10:06.956Z,14.36
2022-10-23T16:12:33.738Z,14.29
2022-10-23T16:15:00.211Z,14.20
2022-10-23T16:17:26.966Z,14.15
2022-10-23T16:19:53.528Z,14.11
2022-10-23T16:22:20.054Z,14.08
2022-10-23T16:24:46.501Z,14.04
2022-10-23T16:27:12.956Z,13.94
2022-10-23T16:29:39.635Z,13.87
2022-10-23T16:32:06.265Z,13.82
2022-10-23T16:34:32.818Z,13.76
2022-10-23T16:36:59.387Z,13.70
2022-10-23T16:39:31.596Z,13.63
2022-10-23T16:42:32.252Z,13.59
2022-10-23T16:45:12.347Z,13.53
2022-10-23T16:47:38.925Z,13.42
2022-10-23T16:50:05.697Z,13.38
2022-10-23T16:52:33.871Z,13.35
2022-10-23T16:55:00.260Z,13.32
2022-10-23T16:57:29.279Z,13.29
2022-10-23T16:59:55.925Z,13.26
2022-10-23T17:02:24.477Z,13.22
2022-10-23T17:04:57.393Z,13.18
2022-10-23T17:07:24.245Z,13.15
2022-10-23T17:09:53.064Z,13.08
2022-10-23T17:12:19.586Z,13.04
2022-10-23T17:14:46.163Z,13.03
2022-10-23T17:17:13.112Z,12.99
2022-10-23T17:19:45.211Z,12.93
2022-10-23T17:22:14.000Z,12.90
2022-10-23T17:27:26.457Z,12.84
2022-10-23T17:29:53.132Z,12.81
2022-10-23T17:34:49.214Z,12.71
2022-10-23T17:37:16.694Z,12.66
2022-10-23T17:39:43.440Z,12.61
2022-10-23T17:42:10.279Z,12.56
2022-10-23T17:44:36.858Z,12.53
2022-10-23T17:47:03.639Z,12.52
2022-10-23T17:49:30.471Z,12.51
2022-10-23T17:51:57.824Z,12.45
2022-10-23T17:54:26.741Z,12.42
2022-10-23T17:56:54.961Z,12.36
2022-10-23T17:59:22.092Z,12.26
2022-10-23T18:01:49.507Z,12.23
2022-10-23T18:04:19.492Z,12.22
